createdAt,value
2018-08-28T00:00:25.931Z,15.26
2018-08-28T00:01:26.265Z,15.22
2018-08-28T00:02:25.949Z,15.12
2018-08-28T00:03:26.785Z,15.22
2018-08-28T00:04:25.870Z,15.23
2018-08-28T00:05:25.860Z,15.17
2018-08-28T00:06:25.837Z,15.23
2018-08-28T00:07:25.822Z,15.25
2018-08-28T00:08:26.109Z,15.17
2018-08-28T00:09:25.845Z,15.14
2018-08-28T00:10:25.838Z,15.25
2018-08-28T00:11:25.813Z,15.23
2018-08-28T00:12:25.745Z,15.23
2018-08-28T00:13:25.748Z,15.22
2018-08-28T00:14:25.720Z,15.19
2018-08-28T00:15:26.000Z,15.17
2018-08-28T00:16:25.785Z,15.19
2018-08-28T00:17:25.674Z,15.14
2018-08-28T00:18:25.654Z,15.20
2018-08-28T00:19:25.638Z,15.19
2018-08-28T00:20:25.623Z,15.17
2018-08-28T00:21:25.608Z,15.23
2018-08-28T00:22:26.073Z,15.20
2018-08-28T00:23:25.630Z,15.26
2018-08-28T00:24:25.612Z,15.27
2018-08-28T00:25:25.546Z,15.22
2018-08-28T00:26:25.611Z,15.25
2018-08-28T00:27:25.599Z,15.22
2018-08-28T00:28:25.579Z,15.15
2018-08-28T00:29:25.915Z,15.25
2018-08-28T00:30:25.540Z,15.17
2018-08-28T00:31:25.531Z,15.20
2018-08-28T00:32:25.510Z,15.12
2018-08-28T00:33:25.425Z,15.17
2018-08-28T00:34:25.474Z,15.17
2018-08-28T00:35:25.491Z,15.11
2018-08-28T00:36:25.676Z,15.20
2018-08-28T00:37:25.359Z,15.07
2018-08-28T00:38:25.344Z,15.10
2018-08-28T00:39:25.330Z,15.17
2018-08-28T00:40:25.313Z,15.10
2018-08-28T00:41:25.349Z,15.05
2018-08-28T00:42:25.637Z,15.05
2018-08-28T00:43:25.270Z,15.11
2018-08-28T00:44:25.252Z,15.05
2018-08-28T00:45:25.331Z,15.05
2018-08-28T00:46:25.330Z,15.03
2018-08-28T00:47:25.366Z,14.99
2018-08-28T00:48:25.540Z,14.99
2018-08-28T00:49:25.175Z,15.08
2018-08-28T00:50:25.158Z,14.99
2018-08-28T00:51:25.147Z,15.03
2018-08-28T00:52:25.264Z,15.07
2018-08-28T00:53:25.163Z,14.97
2018-08-28T00:54:25.452Z,14.95
2018-08-28T00:55:25.130Z,14.97
2018-08-28T00:56:25.065Z,14.93
2018-08-28T00:57:25.052Z,14.93
2018-08-28T00:58:25.033Z,14.90
2018-08-28T00:59:25.070Z,15.01
2018-08-28T01:00:25.354Z,14.96
2018-08-28T01:01:24.988Z,14.93
2018-08-28T01:02:24.970Z,14.92
2018-08-28T01:03:24.955Z,14.96
2018-08-28T01:04:25.022Z,14.93
2018-08-28T01:05:25.008Z,14.93
2018-08-28T01:06:25.290Z,14.95
2018-08-28T01:07:24.975Z,14.96
2018-08-28T01:08:24.956Z,14.93
2018-08-28T01:09:24.943Z,15.08
2018-08-28T01:10:24.846Z,15.05
2018-08-28T01:11:24.880Z,15.04
2018-08-28T01:12:25.165Z,15.10
2018-08-28T01:13:24.852Z,15.10
2018-08-28T01:14:24.788Z,15.08
2018-08-28T01:15:24.854Z,15.17
2018-08-28T01:16:24.752Z,15.14
2018-08-28T01:17:24.786Z,15.23
2018-08-28T01:18:25.071Z,15.22
2018-08-28T01:19:24.820Z,15.17
2018-08-28T01:20:24.807Z,15.27
2018-08-28T01:21:24.791Z,15.23
2018-08-28T01:22:24.775Z,15.27
2018-08-28T01:23:24.758Z,15.23
2018-08-28T01:24:24.743Z,15.30
2018-08-28T01:25:24.963Z,15.26
2018-08-28T01:26:24.596Z,15.32
2018-08-28T01:27:24.582Z,15.30
2018-08-28T01:28:24.565Z,15.30
2018-08-28T01:29:24.551Z,15.32
2018-08-28T01:30:24.584Z,15.30
2018-08-28T01:31:24.568Z,15.30
2018-08-28T01:32:24.854Z,15.23
2018-08-28T01:33:24.489Z,15.23
2018-08-28T01:34:24.471Z,15.29
2018-08-28T01:35:24.455Z,15.26
2018-08-28T01:36:24.441Z,15.29
2018-08-28T01:37:24.474Z,15.26
2018-08-28T01:38:24.460Z,15.30
2018-08-28T01:39:24.693Z,15.32
2018-08-28T01:40:24.378Z,15.32
2018-08-28T01:41:24.363Z,15.32
2018-08-28T01:42:24.352Z,15.32
2018-08-28T01:43:24.385Z,15.32
2018-08-28T01:44:24.398Z,15.41
2018-08-28T01:45:24.352Z,15.41
2018-08-28T01:46:24.656Z,15.41
2018-08-28T01:47:24.341Z,15.44
2018-08-28T01:48:24.253Z,15.41
2018-08-28T01:49:24.324Z,15.38
2018-08-28T01:50:24.274Z,15.36
2018-08-28T01:51:24.207Z,15.45
2018-08-28T01:52:24.242Z,15.40
2018-08-28T01:53:24.477Z,15.32
2018-08-28T01:54:24.237Z,15.33
2018-08-28T01:55:24.207Z,15.29
2018-08-28T01:56:24.181Z,15.30
2018-08-28T01:57:24.188Z,15.32
2018-08-28T01:58:24.100Z,15.41
2018-08-28T01:59:24.087Z,15.30
2018-08-28T02:00:24.369Z,15.30
2018-08-28T02:01:24.104Z,15.30
2018-08-28T02:02:24.138Z,15.41
2018-08-28T02:03:24.024Z,15.41
2018-08-28T02:04:24.009Z,15.33
2018-08-28T02:05:24.073Z,15.29
2018-08-28T02:06:23.976Z,15.30
2018-08-28T02:07:24.259Z,15.32
2018-08-28T02:08:23.995Z,15.27
2018-08-28T02:09:23.981Z,15.29
2018-08-28T02:10:23.964Z,15.32
2018-08-28T02:11:23.899Z,15.29
2018-08-28T02:12:23.887Z,15.32
2018-08-28T02:13:24.248Z,15.45
2018-08-28T02:14:23.984Z,15.32
2018-08-28T02:15:23.920Z,15.27
2018-08-28T02:16:23.905Z,15.33
2018-08-28T02:17:23.808Z,15.25
2018-08-28T02:18:23.790Z,15.27
2018-08-28T02:19:24.076Z,15.29
2018-08-28T02:20:23.896Z,15.30
2018-08-28T02:21:23.876Z,15.27
2018-08-28T02:22:23.809Z,15.19
2018-08-28T02:23:23.796Z,15.20
2018-08-28T02:24:23.779Z,15.17
2018-08-28T02:25:24.068Z,15.14
2018-08-28T02:26:23.750Z,15.20
2018-08-28T02:27:23.733Z,15.25
2018-08-28T02:28:23.767Z,15.12
2018-08-28T02:29:23.621Z,15.22
2018-08-28T02:30:23.606Z,15.25
2018-08-28T02:31:23.893Z,15.22
2018-08-28T02:32:23.575Z,15.20
2018-08-28T02:33:23.656Z,15.11
2018-08-28T02:34:23.598Z,15.22
2018-08-28T02:35:23.581Z,15.14
2018-08-28T02:36:23.514Z,15.25
2018-08-28T02:37:23.800Z,15.17
2018-08-28T02:38:23.482Z,15.22
2018-08-28T02:39:36.204Z,15.11
2018-08-28T02:40:23.501Z,15.08
2018-08-28T02:41:23.587Z,15.05
2018-08-28T02:42:23.420Z,15.07
2018-08-28T02:43:23.704Z,15.03
2018-08-28T02:44:23.390Z,15.08
2018-08-28T02:45:23.378Z,15.01
2018-08-28T02:46:23.359Z,14.97
2018-08-28T02:47:23.393Z,15.03
2018-08-28T02:48:23.379Z,14.97
2018-08-28T02:49:23.665Z,14.95
2018-08-28T02:50:23.298Z,14.93
2018-08-28T02:51:23.282Z,14.89
2018-08-28T02:52:23.268Z,14.87
2018-08-28T02:53:23.251Z,14.83
2018-08-28T02:54:33.125Z,14.85
2018-08-28T02:55:23.695Z,14.86
2018-08-28T02:56:23.339Z,14.86
2018-08-28T02:57:23.302Z,14.77
2018-08-28T02:58:23.257Z,14.74
2018-08-28T02:59:23.239Z,14.78
2018-08-28T03:00:23.305Z,14.79
2018-08-28T03:01:23.242Z,14.77
2018-08-28T03:02:23.577Z,14.74
2018-08-28T03:03:23.209Z,14.67
2018-08-28T03:04:23.194Z,14.66
2018-08-28T03:05:23.189Z,14.59
2018-08-28T03:06:23.162Z,14.66
2018-08-28T03:07:23.198Z,14.59
2018-08-28T03:08:23.142Z,14.63
2018-08-28T03:09:23.471Z,14.56
2018-08-28T03:10:23.104Z,14.58
2018-08-28T03:11:23.092Z,14.56
2018-08-28T03:12:23.068Z,14.55
2018-08-28T03:13:23.184Z,14.45
2018-08-28T03:14:23.121Z,14.55
2018-08-28T03:15:23.145Z,14.44
2018-08-28T03:16:23.379Z,14.49
2018-08-28T03:17:23.055Z,14.51
2018-08-28T03:18:22.949Z,14.48
2018-08-28T03:19:22.898Z,14.48
2018-08-28T03:20:22.880Z,14.45
2018-08-28T03:21:22.866Z,14.46
2018-08-28T03:22:22.797Z,14.41
2018-08-28T03:23:23.083Z,14.36
2018-08-28T03:24:22.767Z,14.34
2018-08-28T03:25:22.754Z,14.37
2018-08-28T03:26:22.786Z,14.33
2018-08-28T03:27:22.771Z,14.33
2018-08-28T03:28:22.826Z,14.22
2018-08-28T03:29:22.810Z,14.26
2018-08-28T03:30:23.156Z,14.19
2018-08-28T03:31:22.779Z,14.08
2018-08-28T03:32:22.762Z,14.09
2018-08-28T03:33:22.742Z,14.08
2018-08-28T03:34:22.662Z,14.03
2018-08-28T03:35:22.596Z,14.09
2018-08-28T03:36:22.581Z,14.03
2018-08-28T03:37:22.876Z,14.00
2018-08-28T03:38:22.598Z,13.97
2018-08-28T03:39:22.581Z,13.96
2018-08-28T03:40:22.566Z,13.97
2018-08-28T03:41:22.500Z,13.86
2018-08-28T03:42:22.483Z,13.93
2018-08-28T03:43:22.769Z,13.79
2018-08-28T03:44:22.452Z,13.76
2018-08-28T03:45:22.593Z,13.82
2018-08-28T03:46:22.426Z,13.85
2018-08-28T03:47:22.407Z,13.73
2018-08-28T03:48:22.392Z,13.73
2018-08-28T03:49:22.678Z,13.67
2018-08-28T03:50:22.368Z,13.75
2018-08-28T03:51:22.393Z,13.71
2018-08-28T03:52:22.377Z,13.68
2018-08-28T03:53:22.361Z,13.64
2018-08-28T03:54:22.297Z,13.61
2018-08-28T03:55:22.624Z,13.61
2018-08-28T03:56:22.264Z,13.67
2018-08-28T03:57:22.247Z,13.61
2018-08-28T03:58:22.282Z,13.64
2018-08-28T03:59:22.264Z,13.63
2018-08-28T04:00:22.250Z,13.61
2018-08-28T04:01:22.565Z,13.53
2018-08-28T04:02:22.321Z,13.58
2018-08-28T04:03:22.151Z,13.61
2018-08-28T04:04:22.186Z,13.53
2018-08-28T04:05:22.170Z,13.65
2018-08-28T04:06:22.160Z,13.60
2018-08-28T04:07:22.387Z,13.54
2018-08-28T04:08:22.076Z,13.54
2018-08-28T04:09:22.060Z,13.51
2018-08-28T04:10:22.109Z,13.65
2018-08-28T04:11:22.093Z,13.53
2018-08-28T04:12:22.082Z,13.57
2018-08-28T04:13:22.363Z,13.45
2018-08-28T04:14:22.045Z,13.49
2018-08-28T04:15:22.030Z,13.46
2018-08-28T04:16:22.018Z,13.51
2018-08-28T04:17:22.051Z,13.46
2018-08-28T04:18:21.979Z,13.45
2018-08-28T04:19:22.194Z,13.40
2018-08-28T04:20:21.879Z,13.42
2018-08-28T04:21:21.897Z,13.39
2018-08-28T04:22:21.911Z,13.45
2018-08-28T04:23:21.886Z,13.36
2018-08-28T04:24:21.865Z,13.46
2018-08-28T04:25:21.848Z,13.47
2018-08-28T04:26:22.082Z,13.43
2018-08-28T04:27:21.768Z,13.45
2018-08-28T04:28:21.749Z,13.42
2018-08-28T04:29:21.856Z,13.35
2018-08-28T04:30:21.861Z,13.45
2018-08-28T04:31:21.777Z,13.43
2018-08-28T04:32:21.683Z,13.45
2018-08-28T04:33:21.968Z,13.46
2018-08-28T04:34:21.652Z,13.45
2018-08-28T04:35:21.711Z,13.53
2018-08-28T04:36:21.690Z,13.49
2018-08-28T04:37:21.684Z,13.45
2018-08-28T04:38:21.660Z,13.45
2018-08-28T04:39:21.651Z,13.47
2018-08-28T04:40:21.927Z,13.58
2018-08-28T04:41:21.623Z,13.46
2018-08-28T04:42:21.653Z,13.63
2018-08-28T04:43:21.638Z,13.61
2018-08-28T04:44:21.562Z,13.53
2018-08-28T04:45:21.551Z,13.57
2018-08-28T04:46:21.537Z,13.49
2018-08-28T04:47:21.820Z,13.51
2018-08-28T04:48:21.503Z,13.55
2018-08-28T04:49:21.540Z,13.46
2018-08-28T04:50:21.519Z,13.55
2018-08-28T04:51:21.456Z,13.54
2018-08-28T04:52:21.438Z,13.55
2018-08-28T04:53:21.344Z,13.55
2018-08-28T04:54:21.805Z,13.64
2018-08-28T04:55:21.359Z,13.57
2018-08-28T04:56:21.346Z,13.61
2018-08-28T04:57:21.277Z,13.57
2018-08-28T04:58:21.259Z,13.57
2018-08-28T04:59:21.241Z,13.49
2018-08-28T05:00:21.225Z,13.61
2018-08-28T05:01:21.559Z,13.58
2018-08-28T05:02:21.292Z,13.64
2018-08-28T05:03:21.176Z,13.60
2018-08-28T05:04:21.160Z,13.72
2018-08-28T05:05:21.152Z,13.71
2018-08-28T05:06:21.127Z,13.75
2018-08-28T05:07:21.113Z,13.76
2018-08-28T05:08:21.531Z,13.80
2018-08-28T05:09:21.209Z,13.82
2018-08-28T05:10:21.149Z,13.83
2018-08-28T05:11:21.045Z,13.80
2018-08-28T05:12:21.128Z,13.78
2018-08-28T05:13:21.016Z,13.76
2018-08-28T05:14:21.325Z,13.82
2018-08-28T05:15:21.032Z,13.83
2018-08-28T05:16:21.098Z,13.76
2018-08-28T05:17:20.948Z,13.82
2018-08-28T05:18:20.935Z,13.86
2018-08-28T05:19:20.988Z,13.85
2018-08-28T05:20:21.200Z,13.79
2018-08-28T05:21:20.932Z,13.88
2018-08-28T05:22:20.922Z,13.98
2018-08-28T05:23:20.900Z,13.98
2018-08-28T05:24:20.836Z,13.96
2018-08-28T05:25:20.819Z,13.98
2018-08-28T05:26:21.102Z,14.00
2018-08-28T05:27:20.785Z,14.03
2018-08-28T05:28:20.820Z,14.05
2018-08-28T05:29:20.805Z,14.04
2018-08-28T05:30:20.854Z,14.09
2018-08-28T05:31:20.720Z,14.09
2018-08-28T05:32:21.007Z,14.00
2018-08-28T05:33:20.690Z,14.12
2018-08-28T05:34:20.672Z,14.19
2018-08-28T05:35:20.709Z,14.15
2018-08-28T05:36:20.697Z,14.19
2018-08-28T05:37:20.675Z,14.21
2018-08-28T05:38:20.912Z,14.28
2018-08-28T05:39:20.595Z,14.22
2018-08-28T05:40:20.579Z,14.33
2018-08-28T05:41:20.560Z,14.34
2018-08-28T05:42:20.595Z,14.34
2018-08-28T05:43:20.582Z,14.34
2018-08-28T05:44:20.861Z,14.45
2018-08-28T05:45:20.614Z,14.46
2018-08-28T05:46:20.601Z,14.52
2018-08-28T05:47:20.463Z,14.53
2018-08-28T05:48:20.449Z,14.53
2018-08-28T05:49:20.563Z,14.63
2018-08-28T05:50:20.724Z,14.58
2018-08-28T05:51:20.398Z,14.71
2018-08-28T05:52:20.388Z,14.67
2018-08-28T05:53:20.376Z,14.78
2018-08-28T05:54:20.352Z,14.78
2018-08-28T05:55:20.389Z,14.90
2018-08-28T05:56:20.426Z,14.95
2018-08-28T05:57:20.656Z,14.90
2018-08-28T05:58:20.296Z,14.97
2018-08-28T05:59:20.273Z,15.03
2018-08-28T06:00:20.258Z,15.03
2018-08-28T06:01:20.243Z,14.99
2018-08-28T06:02:20.276Z,15.01
2018-08-28T06:03:20.404Z,14.99
2018-08-28T06:04:20.545Z,15.12
2018-08-28T06:05:20.182Z,15.14
2018-08-28T06:06:20.168Z,15.14
2018-08-28T06:07:20.147Z,15.12
2018-08-28T06:08:20.181Z,15.20
2018-08-28T06:09:20.167Z,15.17
2018-08-28T06:10:20.101Z,15.23
2018-08-28T06:11:20.386Z,15.26
2018-08-28T06:12:20.069Z,15.30
2018-08-28T06:13:20.054Z,15.32
2018-08-28T06:14:20.090Z,15.40
2018-08-28T06:15:20.074Z,15.38
2018-08-28T06:16:20.013Z,15.44
2018-08-28T06:17:20.009Z,15.47
2018-08-28T06:18:20.279Z,15.43
2018-08-28T06:19:19.963Z,15.62
2018-08-28T06:20:20.111Z,15.56
2018-08-28T06:21:19.988Z,15.63
2018-08-28T06:22:19.916Z,15.66
2018-08-28T06:23:19.905Z,15.65
2018-08-28T06:24:19.885Z,15.68
2018-08-28T06:25:20.222Z,15.72
2018-08-28T06:26:21.192Z,15.84
2018-08-28T06:27:19.841Z,15.78
2018-08-28T06:28:19.829Z,15.77
2018-08-28T06:29:19.862Z,15.78
2018-08-28T06:30:19.800Z,15.80
2018-08-28T06:31:19.780Z,15.88
2018-08-28T06:32:20.115Z,15.93
2018-08-28T06:33:19.802Z,15.95
2018-08-28T06:34:19.740Z,15.91
2018-08-28T06:35:19.720Z,15.96
2018-08-28T06:36:19.704Z,15.93
2018-08-28T06:37:19.718Z,15.99
2018-08-28T06:38:19.677Z,16.10
2018-08-28T06:39:20.069Z,16.09
2018-08-28T06:40:19.648Z,16.17
2018-08-28T06:41:19.640Z,16.17
2018-08-28T06:42:19.615Z,16.24
2018-08-28T06:43:19.626Z,16.24
2018-08-28T06:44:19.586Z,16.26
2018-08-28T06:45:19.920Z,16.28
2018-08-28T06:46:19.605Z,16.32
2018-08-28T06:47:20.091Z,16.42
2018-08-28T06:48:19.527Z,16.42
2018-08-28T06:49:19.511Z,16.44
2018-08-28T06:50:19.494Z,16.46
2018-08-28T06:51:19.832Z,16.52
2018-08-28T06:52:19.468Z,16.54
2018-08-28T06:53:19.502Z,16.57
2018-08-28T06:54:19.486Z,16.58
2018-08-28T06:55:19.474Z,16.69
2018-08-28T06:56:19.457Z,16.65
2018-08-28T06:57:19.691Z,16.79
2018-08-28T06:58:19.380Z,16.72
2018-08-28T06:59:19.413Z,16.80
2018-08-28T07:00:19.399Z,16.87
2018-08-28T07:01:19.337Z,16.84
2018-08-28T07:02:19.367Z,16.94
2018-08-28T07:03:19.610Z,16.95
2018-08-28T07:04:19.345Z,17.06
2018-08-28T07:05:19.325Z,17.02
2018-08-28T07:06:19.315Z,16.99
2018-08-28T07:07:19.499Z,17.07
2018-08-28T07:08:19.281Z,17.12
2018-08-28T07:09:19.520Z,17.13
2018-08-28T07:10:19.257Z,17.16
2018-08-28T07:11:19.241Z,17.17
2018-08-28T07:12:19.276Z,17.27
2018-08-28T07:13:19.164Z,17.32
2018-08-28T07:14:19.148Z,17.35
2018-08-28T07:15:19.433Z,17.43
2018-08-28T07:16:19.116Z,17.47
2018-08-28T07:17:19.129Z,17.43
2018-08-28T07:18:21.592Z,17.49
2018-08-28T07:19:19.081Z,17.43
2018-08-28T07:20:19.059Z,17.50
2018-08-28T07:21:19.349Z,17.62
2018-08-28T07:22:19.032Z,17.63
2018-08-28T07:23:19.018Z,17.78
2018-08-28T07:24:19.061Z,17.78
2018-08-28T07:25:19.100Z,17.81
2018-08-28T07:26:18.979Z,17.96
2018-08-28T07:27:19.263Z,18.03
2018-08-28T07:28:18.948Z,17.93
2018-08-28T07:29:18.938Z,17.94
2018-08-28T07:30:18.920Z,18.03
2018-08-28T07:31:18.996Z,18.08
2018-08-28T07:32:18.941Z,18.15
2018-08-28T07:33:18.928Z,18.23
2018-08-28T07:34:19.165Z,18.18
2018-08-28T07:35:18.936Z,18.30
2018-08-28T07:36:18.838Z,18.38
2018-08-28T07:37:18.923Z,18.34
2018-08-28T07:38:18.891Z,18.39
2018-08-28T07:39:18.896Z,18.20
2018-08-28T07:40:18.786Z,18.24
2018-08-28T07:41:19.153Z,18.42
2018-08-28T07:42:18.757Z,18.46
2018-08-28T07:43:18.745Z,18.56
2018-08-28T07:44:18.730Z,18.64
2018-08-28T07:45:18.787Z,18.70
2018-08-28T07:46:18.754Z,18.67
2018-08-28T07:47:18.744Z,18.74
2018-08-28T07:48:19.022Z,18.86
2018-08-28T07:49:18.665Z,18.67
2018-08-28T07:50:18.651Z,18.70
2018-08-28T07:51:18.643Z,18.86
2018-08-28T07:52:18.680Z,18.85
2018-08-28T07:53:18.668Z,18.89
2018-08-28T07:54:18.599Z,19.00
2018-08-28T07:55:18.892Z,19.04
2018-08-28T07:56:18.572Z,18.93
2018-08-28T07:57:18.561Z,18.78
2018-08-28T07:58:18.547Z,18.88
2018-08-28T07:59:18.584Z,18.85
2018-08-28T08:00:18.572Z,18.93
2018-08-28T08:01:18.530Z,19.01
2018-08-28T08:02:18.798Z,19.04
2018-08-28T08:03:18.483Z,19.16
2018-08-28T08:04:18.476Z,18.98
2018-08-28T08:05:18.509Z,19.22
2018-08-28T08:06:18.558Z,19.24
2018-08-28T08:07:18.437Z,19.35
2018-08-28T08:08:18.425Z,19.56
2018-08-28T08:09:18.761Z,19.68
2018-08-28T08:10:18.406Z,19.74
2018-08-28T08:11:18.387Z,19.81
2018-08-28T08:12:18.505Z,19.82
2018-08-28T08:13:18.490Z,19.93
2018-08-28T08:14:18.395Z,19.90
2018-08-28T08:15:18.634Z,19.92
2018-08-28T08:16:18.527Z,20.08
2018-08-28T08:17:18.326Z,20.19
2018-08-28T08:18:18.297Z,20.11
2018-08-28T08:19:18.337Z,20.05
2018-08-28T08:20:18.525Z,20.02
2018-08-28T08:21:18.561Z,20.04
2018-08-28T08:22:18.449Z,19.97
2018-08-28T08:23:18.317Z,20.04
2018-08-28T08:24:18.223Z,19.81
2018-08-28T08:25:18.263Z,19.60
2018-08-28T08:26:18.248Z,19.93
2018-08-28T08:27:18.487Z,20.15
2018-08-28T08:28:18.374Z,20.19
2018-08-28T08:29:18.164Z,20.15
2018-08-28T08:30:18.153Z,20.25
2018-08-28T08:31:18.191Z,20.27
2018-08-28T08:32:18.182Z,20.42
2018-08-28T08:33:18.418Z,20.14
2018-08-28T08:34:18.106Z,20.12
2018-08-28T08:35:18.120Z,20.27
2018-08-28T08:36:18.082Z,20.12
2018-08-28T08:37:18.122Z,20.07
2018-08-28T08:38:18.110Z,20.11
2018-08-28T08:39:18.404Z,20.18
2018-08-28T08:40:18.035Z,20.39
2018-08-28T08:41:18.028Z,20.52
2018-08-28T08:42:18.016Z,20.67
2018-08-28T08:43:18.127Z,20.64
2018-08-28T08:44:18.043Z,20.61
2018-08-28T08:45:18.417Z,20.71
2018-08-28T08:46:18.053Z,20.77
2018-08-28T08:47:18.036Z,20.74
2018-08-28T08:48:18.032Z,20.93
2018-08-28T08:49:17.932Z,21.11
2018-08-28T08:50:17.991Z,20.98
2018-08-28T08:51:18.366Z,21.03
2018-08-28T08:52:17.898Z,21.16
2018-08-28T08:53:17.889Z,21.18
2018-08-28T08:54:17.876Z,20.74
2018-08-28T08:55:17.946Z,20.74
2018-08-28T08:56:17.944Z,20.55
2018-08-28T08:57:18.009Z,20.67
2018-08-28T08:58:18.262Z,20.77
2018-08-28T08:59:17.909Z,20.74
2018-08-28T09:00:17.891Z,20.88
2018-08-28T09:01:17.890Z,21.00
2018-08-28T09:02:17.792Z,21.23
2018-08-28T09:03:17.836Z,21.56
2018-08-28T09:04:17.824Z,21.77
2018-08-28T09:05:18.107Z,21.55
2018-08-28T09:06:17.751Z,21.94
2018-08-28T09:07:17.736Z,21.80
2018-08-28T09:08:17.728Z,21.55
2018-08-28T09:09:17.794Z,21.96
2018-08-28T09:10:17.835Z,21.58
2018-08-28T09:11:17.823Z,21.23
2018-08-28T09:12:18.034Z,21.44
2018-08-28T09:13:17.679Z,21.75
2018-08-28T09:14:17.665Z,21.91
2018-08-28T09:15:17.657Z,22.12
2018-08-28T09:16:17.642Z,22.28
2018-08-28T09:17:17.686Z,22.13
2018-08-28T09:18:17.672Z,22.16
2018-08-28T09:19:17.972Z,22.18
2018-08-28T09:20:17.609Z,21.97
2018-08-28T09:21:18.203Z,21.50
2018-08-28T09:22:18.192Z,21.74
2018-08-28T09:23:17.676Z,21.97
2018-08-28T09:24:17.564Z,22.27
2018-08-28T09:25:17.555Z,22.53
2018-08-28T09:26:17.999Z,22.71
2018-08-28T09:27:17.533Z,22.99
2018-08-28T09:28:17.525Z,23.21
2018-08-28T09:29:17.569Z,23.51
2018-08-28T09:30:17.554Z,23.70
2018-08-28T09:31:17.702Z,23.61
2018-08-28T09:32:19.430Z,23.44
2018-08-28T09:35:17.518Z,23.51
2018-08-28T09:37:17.534Z,23.26
2018-08-28T09:38:17.531Z,22.80
2018-08-28T09:39:17.738Z,22.33
2018-08-28T09:40:17.413Z,22.46
2018-08-28T09:41:17.404Z,22.34
2018-08-28T09:42:17.395Z,22.09
2018-08-28T09:43:17.437Z,21.81
2018-08-28T09:44:17.497Z,21.78
2018-08-28T09:45:17.756Z,21.50
2018-08-28T09:46:17.365Z,21.75
2018-08-28T09:47:17.353Z,22.18
2018-08-28T09:48:17.502Z,22.58
2018-08-28T09:49:17.339Z,22.71
2018-08-28T09:51:17.674Z,23.06
2018-08-28T09:52:17.354Z,23.14
2018-08-28T09:53:17.299Z,23.26
2018-08-28T09:54:17.284Z,23.46
2018-08-28T09:55:17.286Z,22.89
2018-08-28T09:56:17.269Z,22.71
2018-08-28T09:57:17.726Z,22.21
2018-08-28T09:58:17.333Z,21.96
2018-08-28T09:59:17.241Z,21.74
2018-08-28T10:00:17.247Z,21.60
2018-08-28T10:01:17.307Z,21.53
2018-08-28T10:02:17.296Z,21.43
2018-08-28T10:03:17.559Z,21.18
2018-08-28T10:04:17.254Z,21.14
2018-08-28T10:05:17.241Z,21.01
2018-08-28T10:06:17.185Z,20.77
2018-08-28T10:07:17.173Z,20.79
2018-08-28T10:08:17.164Z,20.64
2018-08-28T10:09:17.499Z,20.52
2018-08-28T10:10:17.190Z,20.55
2018-08-28T10:11:17.178Z,20.48
2018-08-28T10:12:17.121Z,20.39
2018-08-28T10:13:17.120Z,20.42
2018-08-28T10:14:17.102Z,20.37
2018-08-28T10:15:17.442Z,20.37
2018-08-28T10:16:17.125Z,20.29
2018-08-28T10:17:17.126Z,20.34
2018-08-28T10:18:17.144Z,20.30
2018-08-28T10:19:17.126Z,20.26
2018-08-28T10:20:17.116Z,20.29
2018-08-28T10:21:17.456Z,20.26
2018-08-28T10:22:17.091Z,20.29
2018-08-28T10:23:17.010Z,20.34
2018-08-28T10:24:17.003Z,20.27
2018-08-28T10:25:16.988Z,20.36
2018-08-28T10:26:16.970Z,20.42
2018-08-28T10:27:17.309Z,20.50
2018-08-28T10:28:16.998Z,20.48
2018-08-28T10:29:16.988Z,20.53
2018-08-28T10:30:16.971Z,20.50
2018-08-28T10:31:16.913Z,20.67
2018-08-28T10:32:17.023Z,20.70
2018-08-28T10:33:16.892Z,20.73
2018-08-28T10:34:16.930Z,20.71
2018-08-28T10:35:16.918Z,20.86
2018-08-28T10:36:16.915Z,21.38
2018-08-28T10:37:16.853Z,22.18
2018-08-28T10:38:16.925Z,22.67
2018-08-28T10:39:17.128Z,23.17
2018-08-28T10:40:16.817Z,23.48
2018-08-28T10:41:16.805Z,23.10
2018-08-28T10:42:16.845Z,22.85
2018-08-28T10:43:16.884Z,22.62
2018-08-28T10:44:16.773Z,22.19
2018-08-28T10:45:16.818Z,22.04
2018-08-28T10:46:17.072Z,21.84
2018-08-28T10:47:16.742Z,21.77
2018-08-28T10:48:16.734Z,21.73
2018-08-28T10:49:16.773Z,21.56
2018-08-28T10:50:16.720Z,21.41
2018-08-28T10:51:16.721Z,21.38
2018-08-28T10:52:17.003Z,21.26
2018-08-28T10:53:16.686Z,21.26
2018-08-28T10:54:16.669Z,21.23
2018-08-28T10:55:16.914Z,21.22
2018-08-28T10:56:16.703Z,21.25
2018-08-28T10:57:16.644Z,21.28
2018-08-28T10:58:16.835Z,21.30
2018-08-28T10:59:17.044Z,21.29
2018-08-28T11:00:16.814Z,21.20
2018-08-28T11:01:16.651Z,21.40
2018-08-28T11:02:19.660Z,21.37
2018-08-28T11:03:16.581Z,21.26
2018-08-28T11:04:16.569Z,21.35
2018-08-28T11:05:16.566Z,21.45
2018-08-28T11:06:16.903Z,21.28
2018-08-28T11:07:16.739Z,21.41
2018-08-28T11:08:16.948Z,21.53
2018-08-28T11:09:16.570Z,21.77
2018-08-28T11:10:16.506Z,22.30
2018-08-28T11:11:16.509Z,22.55
2018-08-28T11:12:16.795Z,22.64
2018-08-28T11:13:16.475Z,22.67
2018-08-28T11:14:16.517Z,22.46
2018-08-28T11:15:16.710Z,22.31
2018-08-28T11:16:16.645Z,22.12
2018-08-28T11:17:16.445Z,22.56
2018-08-28T11:18:16.722Z,22.99
2018-08-28T11:19:16.412Z,23.34
2018-08-28T11:20:16.404Z,23.56
2018-08-28T11:21:16.492Z,23.89
2018-08-28T11:22:16.407Z,23.64
2018-08-28T11:23:16.453Z,23.08
2018-08-28T11:24:16.666Z,22.93
2018-08-28T11:25:16.361Z,22.62
2018-08-28T11:26:16.394Z,22.27
2018-08-28T11:27:16.388Z,22.12
2018-08-28T11:28:16.484Z,21.98
2018-08-28T11:29:16.418Z,22.01
2018-08-28T11:30:16.693Z,21.93
2018-08-28T11:31:16.419Z,21.85
2018-08-28T11:32:16.372Z,21.75
2018-08-28T11:33:16.329Z,21.69
2018-08-28T11:34:16.318Z,21.58
2018-08-28T11:35:16.262Z,21.56
2018-08-28T11:36:16.550Z,21.58
2018-08-28T11:37:16.241Z,21.56
2018-08-28T11:38:16.240Z,21.58
2018-08-28T11:39:16.271Z,21.60
2018-08-28T11:40:16.260Z,21.51
2018-08-28T11:41:16.254Z,21.43
2018-08-28T11:43:16.484Z,21.43
2018-08-28T11:44:16.172Z,21.40
2018-08-28T11:45:16.216Z,21.43
2018-08-28T11:46:16.204Z,21.50
2018-08-28T11:47:16.274Z,21.53
2018-08-28T11:48:16.221Z,21.44
2018-08-28T11:49:16.712Z,21.48
2018-08-28T11:50:16.192Z,21.50
2018-08-28T11:51:16.151Z,21.53
2018-08-28T11:52:16.143Z,21.43
2018-08-28T11:53:16.169Z,21.43
2018-08-28T11:54:16.074Z,21.38
2018-08-28T11:55:16.367Z,21.45
2018-08-28T11:56:16.061Z,21.43
2018-08-28T11:57:16.088Z,21.41
2018-08-28T11:58:16.083Z,21.53
2018-08-28T11:59:16.130Z,21.47
2018-08-28T12:00:16.005Z,21.48
2018-08-28T12:01:16.294Z,21.51
2018-08-28T12:02:15.983Z,21.45
2018-08-28T12:03:15.973Z,21.40
2018-08-28T12:06:07.420Z,21.41
2018-08-28T12:08:09.025Z,21.43
2018-08-28T12:09:12.238Z,21.43
2018-08-28T12:10:06.170Z,21.43
2018-08-28T12:11:40.071Z,21.58
2018-08-28T12:12:06.142Z,21.62
2018-08-28T12:13:06.613Z,21.73
2018-08-28T12:14:05.919Z,21.58
2018-08-28T12:15:07.358Z,21.51
2018-08-28T12:16:05.947Z,21.62
2018-08-28T12:18:12.147Z,21.73
2018-08-28T12:19:05.865Z,22.07
2018-08-28T12:20:25.089Z,22.91
2018-08-28T12:21:06.522Z,23.52
2018-08-28T12:22:05.834Z,23.82
2018-08-28T12:23:06.757Z,23.98
2018-08-28T12:24:05.819Z,23.98
2018-08-28T12:25:07.238Z,24.23
2018-08-28T12:26:09.863Z,24.25
2018-08-28T12:27:06.412Z,23.84
2018-08-28T12:28:08.808Z,23.61
2018-08-28T12:29:06.631Z,23.46
2018-08-28T12:30:12.022Z,23.49
2018-08-28T12:31:26.172Z,23.59
2018-08-28T12:32:05.736Z,23.70
2018-08-28T12:34:06.334Z,23.03
2018-08-28T12:35:07.424Z,22.77
2018-08-28T12:36:05.777Z,22.68
2018-08-28T12:37:08.869Z,22.43
2018-08-28T12:38:08.714Z,22.30
2018-08-28T12:39:05.685Z,22.13
2018-08-28T12:41:50.746Z,21.84
2018-08-28T12:42:50.531Z,21.80
2018-08-28T12:43:50.597Z,21.82
2018-08-28T12:44:51.119Z,21.71
2018-08-28T12:45:52.240Z,21.62
2018-08-28T12:46:53.536Z,21.63
2018-08-28T12:47:51.091Z,21.69
2018-08-28T12:48:56.740Z,21.77
2018-08-28T12:49:50.671Z,21.63
2018-08-28T12:50:50.459Z,21.55
2018-08-28T12:51:50.946Z,21.53
2018-08-28T12:52:51.043Z,21.58
2018-08-28T12:53:50.432Z,21.45
2018-08-28T12:54:50.474Z,21.45
2018-08-28T12:55:51.819Z,21.51
2018-08-28T12:56:53.426Z,21.58
2018-08-28T12:57:53.740Z,21.63
2018-08-28T12:58:51.788Z,21.60
2018-08-28T12:59:53.413Z,21.59
2018-08-28T13:00:50.364Z,21.60
2018-08-28T13:01:50.547Z,21.66
2018-08-28T13:02:50.331Z,21.59
2018-08-28T13:03:50.630Z,21.66